createdAt,value
2022-10-03T00:02:08.942Z,13.80
2022-10-03T00:07:30.579Z,13.80
2022-10-03T00:12:45.869Z,13.90
2022-10-03T00:17:57.724Z,14.10
2022-10-03T00:23:07.812Z,14.20
2022-10-03T00:28:24.828Z,14.30
2022-10-03T00:33:37.223Z,14.40
2022-10-03T00:39:02.909Z,14.40
2022-10-03T00:45:02.294Z,14.40
2022-10-03T00:50:43.202Z,14.40
2022-10-03T00:55:59.827Z,14.30
2022-10-03T01:01:21.933Z,14.20
2022-10-03T01:06:37.762Z,14.10
2022-10-03T01:12:03.981Z,14.00
2022-10-03T01:17:14.351Z,13.90
2022-10-03T01:22:39.824Z,13.80
2022-10-03T01:27:49.326Z,13.80
2022-10-03T01:33:02.445Z,13.90
2022-10-03T01:38:16.191Z,13.90
2022-10-03T01:43:21.178Z,14.10
2022-10-03T01:48:35.762Z,14.10
2022-10-03T01:53:56.838Z,14.20
2022-10-03T01:59:06.707Z,14.30
2022-10-03T02:04:20.851Z,14.30
2022-10-03T02:09:34.273Z,14.30
2022-10-03T02:14:49.865Z,14.40
2022-10-03T02:20:03.381Z,14.40
2022-10-03T02:25:49.618Z,14.50
2022-10-03T02:31:20.341Z,14.50
2022-10-03T02:37:00.044Z,14.40
2022-10-03T02:42:37.435Z,14.40
2022-10-03T02:48:27.479Z,14.30
2022-10-03T02:54:11.504Z,14.20
2022-10-03T02:59:45.245Z,14.00
2022-10-03T03:05:18.271Z,13.90
2022-10-03T03:10:38.578Z,13.80
2022-10-03T03:16:17.349Z,13.70
2022-10-03T03:21:30.149Z,13.60
2022-10-03T03:26:56.215Z,13.50
2022-10-03T03:32:08.519Z,13.40
2022-10-03T03:37:18.896Z,13.50
2022-10-03T03:42:55.066Z,13.50
2022-10-03T03:48:27.109Z,13.60
2022-10-03T03:54:14.405Z,13.70
2022-10-03T03:59:34.606Z,13.80
2022-10-03T04:04:48.192Z,13.80
2022-10-03T04:10:25.738Z,13.80
2022-10-03T04:16:01.985Z,13.70
2022-10-03T04:21:22.403Z,13.70
2022-10-03T04:26:46.268Z,13.60
2022-10-03T04:31:56.150Z,13.50
2022-10-03T04:37:18.290Z,13.50
2022-10-03T04:42:41.578Z,13.40
2022-10-03T04:47:52.730Z,13.30
2022-10-03T04:53:10.594Z,13.20
2022-10-03T04:58:24.253Z,13.10
2022-10-03T05:03:40.665Z,13.00
2022-10-03T05:08:50.363Z,12.90
2022-10-03T05:14:09.111Z,12.90
2022-10-03T05:19:43.148Z,12.90
2022-10-03T05:24:54.051Z,13.00
2022-10-03T05:30:03.729Z,13.10
2022-10-03T05:35:29.214Z,13.20
2022-10-03T05:40:35.034Z,13.30
2022-10-03T05:45:49.713Z,13.40
2022-10-03T05:51:27.543Z,13.50
2022-10-03T05:56:57.203Z,13.60
2022-10-03T06:02:42.881Z,13.70
2022-10-03T06:08:06.341Z,13.80
2022-10-03T06:13:19.362Z,13.90
2022-10-03T06:18:54.348Z,14.00
2022-10-03T06:24:24.823Z,14.10
2022-10-03T06:30:04.388Z,14.30
2022-10-03T06:35:41.109Z,14.50
2022-10-03T06:41:20.890Z,14.60
2022-10-03T06:46:56.601Z,15.20
2022-10-03T06:52:27.402Z,16.30
2022-10-03T06:58:14.059Z,17.30
2022-10-03T07:03:41.943Z,18.10
2022-10-03T07:09:20.264Z,18.80
2022-10-03T07:14:50.472Z,19.80
2022-10-03T07:20:23.292Z,20.90
2022-10-03T07:26:05.476Z,22.10
2022-10-03T07:31:21.604Z,23.10
2022-10-03T07:36:32.360Z,24.00
2022-10-03T07:42:05.280Z,24.70
2022-10-03T07:47:37.612Z,25.30
2022-10-03T07:52:56.731Z,25.70
2022-10-03T07:58:41.880Z,26.30
2022-10-03T08:04:26.174Z,26.70
2022-10-03T08:10:01.959Z,26.90
2022-10-03T08:15:11.204Z,27.20
2022-10-03T08:20:47.273Z,27.10
2022-10-03T08:26:06.169Z,26.60
2022-10-03T08:31:57.758Z,26.20
2022-10-03T08:37:26.933Z,26.20
2022-10-03T08:43:05.226Z,26.80
2022-10-03T08:48:43.787Z,27.60
2022-10-03T08:54:05.872Z,28.30
2022-10-03T08:59:32.004Z,28.80
2022-10-03T09:05:09.704Z,29.20
2022-10-03T09:10:58.683Z,29.70
2022-10-03T09:16:58.039Z,30.00
2022-10-03T09:22:28.332Z,30.10
2022-10-03T09:27:46.496Z,30.30
2022-10-03T09:33:25.878Z,30.30
2022-10-03T09:39:04.289Z,30.10
2022-10-03T09:44:34.453Z,29.80
2022-10-03T09:50:05.176Z,29.80
2022-10-03T09:55:35.534Z,29.90
2022-10-03T10:01:13.919Z,30.00
2022-10-03T10:06:35.456Z,30.00
2022-10-03T10:12:12.938Z,29.80
2022-10-03T10:17:45.581Z,29.70
2022-10-03T10:23:36.875Z,29.40
2022-10-03T10:29:14.742Z,28.80
2022-10-03T10:34:47.615Z,28.20
2022-10-03T10:40:29.649Z,28.20
2022-10-03T10:45:57.359Z,28.40
2022-10-03T10:51:53.770Z,28.60
2022-10-03T10:57:26.486Z,28.40
2022-10-03T11:03:00.740Z,28.00
2022-10-03T11:08:45.502Z,27.60
2022-10-03T11:14:27.114Z,27.30
2022-10-03T11:20:04.437Z,27.50
2022-10-03T11:25:51.774Z,27.40
2022-10-03T11:31:27.316Z,27.20
2022-10-03T11:37:03.478Z,27.20
2022-10-03T11:42:18.849Z,27.20
2022-10-03T11:47:43.940Z,27.20
2022-10-03T11:53:02.484Z,27.50
2022-10-03T11:58:21.645Z,27.90
2022-10-03T12:03:28.727Z,28.40
2022-10-03T12:08:34.506Z,28.80
2022-10-03T12:13:46.543Z,28.90
2022-10-03T12:18:58.764Z,28.40
2022-10-03T12:24:13.730Z,27.80
2022-10-03T12:29:19.972Z,27.00
2022-10-03T12:34:40.592Z,26.50
2022-10-03T12:39:54.107Z,26.30
2022-10-03T12:45:05.239Z,26.30
2022-10-03T12:50:22.303Z,26.30
2022-10-03T12:55:30.439Z,26.10
2022-10-03T13:00:45.211Z,25.80
2022-10-03T13:06:26.684Z,25.40
2022-10-03T13:11:53.548Z,25.10
2022-10-03T13:17:10.063Z,24.80
2022-10-03T13:22:35.000Z,24.70
2022-10-03T13:27:44.763Z,24.60
2022-10-03T13:32:52.434Z,24.50
2022-10-03T13:38:36.969Z,24.40
2022-10-03T13:43:45.013Z,24.30
2022-10-03T13:49:01.799Z,24.20
2022-10-03T13:54:11.746Z,24.20
2022-10-03T13:59:32.050Z,24.10
2022-10-03T14:04:51.913Z,24.10
2022-10-03T14:10:34.079Z,24.00
2022-10-03T14:15:48.432Z,24.00
2022-10-03T14:21:40.854Z,23.90
2022-10-03T14:26:50.300Z,23.80
2022-10-03T14:32:00.409Z,23.60
2022-10-03T14:37:16.819Z,23.40
2022-10-03T14:42:45.593Z,23.20
2022-10-03T14:47:53.099Z,23.00
2022-10-03T14:53:01.685Z,22.80
2022-10-03T14:58:11.518Z,22.60
2022-10-03T15:03:23.971Z,22.50
2022-10-03T15:08:34.784Z,22.40
2022-10-03T15:13:45.855Z,22.40
2022-10-03T15:18:54.402Z,22.30
2022-10-03T15:24:02.882Z,22.20
2022-10-03T15:29:07.698Z,22.10
2022-10-03T15:34:18.531Z,22.00
2022-10-03T15:39:28.554Z,22.00
2022-10-03T15:44:33.335Z,21.90
2022-10-03T15:49:39.865Z,21.80
2022-10-03T15:54:49.256Z,21.60
2022-10-03T15:59:58.231Z,21.40
2022-10-03T16:05:14.746Z,21.30
2022-10-03T16:10:22.901Z,21.20
2022-10-03T16:15:31.920Z,21.00
2022-10-03T16:20:38.485Z,20.90
2022-10-03T16:25:48.058Z,20.80
2022-10-03T16:30:57.274Z,20.60
2022-10-03T16:36:02.808Z,20.50
2022-10-03T16:41:25.720Z,20.40
2022-10-03T16:46:33.452Z,20.30
2022-10-03T16:51:40.449Z,20.10
2022-10-03T16:56:45.928Z,20.00
2022-10-03T17:01:58.784Z,19.90
2022-10-03T17:07:05.167Z,19.70
2022-10-03T17:12:16.093Z,19.60
2022-10-03T17:17:28.458Z,19.40
2022-10-03T17:22:37.694Z,19.20
2022-10-03T17:27:43.292Z,19.10
2022-10-03T17:33:02.095Z,18.90
2022-10-03T17:44:06.414Z,18.60
2022-10-03T17:49:25.484Z,18.40
2022-10-03T17:54:32.421Z,18.30
2022-10-03T17:59:45.366Z,18.10
2022-10-03T18:04:57.254Z,18.00
2022-10-03T18:10:01.363Z,17.80
2022-10-03T18:15:36.661Z,17.70
2022-10-03T18:20:50.406Z,17.50
2022-10-03T18:26:18.566Z,17.30
2022-10-03T18:31:24.234Z,17.20
2022-10-03T18:36:36.099Z,17.10
2022-10-03T18:41:45.581Z,16.90
2022-10-03T18:46:54.751Z,16.80
2022-10-03T18:52:07.452Z,16.70
2022-10-03T18:57:17.774Z,16.60
2022-10-03T19:02:28.524Z,16.40
2022-10-03T19:07:38.779Z,16.30
2022-10-03T19:12:47.419Z,16.20
2022-10-03T19:17:59.307Z,16.10
2022-10-03T19:23:13.906Z,16.10
2022-10-03T19:28:20.392Z,16.00
2022-10-03T19:33:43.016Z,15.90
2022-10-03T19:38:48.583Z,15.90
2022-10-03T19:43:53.979Z,15.90
2022-10-03T19:49:39.870Z,15.80
2022-10-03T19:54:52.431Z,15.80
2022-10-03T20:00:08.013Z,15.70
2022-10-03T20:05:19.837Z,15.60
2022-10-03T20:10:42.159Z,15.50
2022-10-03T20:15:47.624Z,15.50
2022-10-03T20:20:53.504Z,15.40
2022-10-03T20:26:03.944Z,15.30
2022-10-03T20:31:08.902Z,15.30
2022-10-03T20:36:19.659Z,15.20
2022-10-03T20:41:33.138Z,15.10
2022-10-03T20:46:37.868Z,15.10
2022-10-03T20:51:44.814Z,15.00
2022-10-03T20:56:57.749Z,15.00
2022-10-03T21:02:09.053Z,15.00
2022-10-03T21:07:35.274Z,14.90
2022-10-03T21:12:45.423Z,14.90
2022-10-03T21:17:49.838Z,14.90
2022-10-03T21:22:58.593Z,14.80
2022-10-03T21:28:04.580Z,14.80
2022-10-03T21:33:12.366Z,14.80
2022-10-03T21:38:23.825Z,14.80
2022-10-03T21:43:42.103Z,14.80
2022-10-03T21:48:58.540Z,14.90
2022-10-03T21:54:24.121Z,14.90
2022-10-03T21:59:54.118Z,15.00
2022-10-03T22:05:02.317Z,15.00
2022-10-03T22:10:19.096Z,15.00
2022-10-03T22:15:35.025Z,15.00
2022-10-03T22:20:47.979Z,15.00
2022-10-03T22:26:08.896Z,15.00
2022-10-03T22:31:22.108Z,15.00
2022-10-03T22:36:24.925Z,14.90
2022-10-03T22:41:30.824Z,14.80
2022-10-03T22:46:36.929Z,14.80
2022-10-03T22:51:41.293Z,14.80
2022-10-03T22:56:48.203Z,14.80
2022-10-03T23:01:55.258Z,14.80
2022-10-03T23:07:19.285Z,14.90
2022-10-03T23:12:26.058Z,14.90
2022-10-03T23:17:46.775Z,14.90
2022-10-03T23:22:55.587Z,14.80
2022-10-03T23:28:13.396Z,14.80
2022-10-03T23:33:39.754Z,14.80
2022-10-03T23:38:59.806Z,14.80
2022-10-03T23:44:02.405Z,14.80
2022-10-03T23:49:06.446Z,14.90
2022-10-03T23:54:13.136Z,14.90
2022-10-03T23:59:23.492Z,14.90
